createdAt,value
2018-09-28T00:01:52.608Z,101315.66
2018-09-28T00:04:19.228Z,101315.18
2018-09-28T00:06:45.876Z,101314.55
2018-09-28T00:09:12.541Z,101314.40
2018-09-28T00:11:39.177Z,101311.78
2018-09-28T00:14:06.564Z,101313.95
2018-09-28T00:16:33.276Z,101308.40
2018-09-28T00:19:00.696Z,101310.66
2018-09-28T00:21:28.429Z,101312.28
2018-09-28T00:23:55.068Z,101311.05
2018-09-28T00:26:21.760Z,101304.80
2018-09-28T00:28:48.412Z,101301.66
2018-09-28T00:31:15.978Z,101303.86
2018-09-28T00:33:43.609Z,101301.65
2018-09-28T00:36:10.373Z,101296.09
2018-09-28T00:38:37.265Z,101296.84
2018-09-28T00:41:05.893Z,101295.27
2018-09-28T00:43:33.494Z,101287.16
2018-09-28T00:46:01.094Z,101290.19
2018-09-28T00:48:28.633Z,101288.13
2018-09-28T00:50:56.106Z,101286.80
2018-09-28T00:53:23.677Z,101285.73
2018-09-28T00:55:51.284Z,101288.27
2018-09-28T00:58:18.985Z,101283.22
2018-09-28T01:00:45.616Z,101285.27
2018-09-28T01:03:13.133Z,101284.64
2018-09-28T01:05:40.644Z,101283.17
2018-09-28T01:08:08.321Z,101281.78
2018-09-28T01:10:36.232Z,101285.81
2018-09-28T01:13:02.905Z,101281.74
2018-09-28T01:15:29.589Z,101285.73
2018-09-28T01:17:57.308Z,101285.08
2018-09-28T01:20:24.925Z,101287.05
2018-09-28T01:22:52.491Z,101278.54
2018-09-28T01:25:19.921Z,101278.69
2018-09-28T01:27:47.560Z,101276.98
2018-09-28T01:30:14.227Z,101272.14
2018-09-28T01:32:40.862Z,101264.52
2018-09-28T01:35:07.564Z,101268.90
2018-09-28T01:37:36.564Z,101266.69
2018-09-28T01:40:03.244Z,101271.20
2018-09-28T01:42:29.909Z,101271.11
2018-09-28T01:44:57.664Z,101267.72
2018-09-28T01:47:25.249Z,101265.66
2018-09-28T01:49:52.753Z,101263.25
2018-09-28T01:52:20.323Z,101262.02
2018-09-28T01:54:47.973Z,101263.98
2018-09-28T01:57:15.593Z,101262.02
2018-09-28T01:59:43.300Z,101261.92
2018-09-28T02:02:10.917Z,101268.45
2018-09-28T02:04:38.489Z,101262.41
2018-09-28T02:07:06.525Z,101253.84
2018-09-28T02:09:34.184Z,101260.20
2018-09-28T02:12:01.633Z,101258.33
2018-09-28T02:14:29.088Z,101260.44
2018-09-28T02:16:57.713Z,101255.68
2018-09-28T02:19:24.367Z,101251.58
2018-09-28T02:21:51.008Z,101251.20
2018-09-28T02:24:17.640Z,101254.00
2018-09-28T02:26:45.299Z,101263.30
2018-09-28T02:29:12.929Z,101262.91
2018-09-28T02:31:40.544Z,101258.72
2018-09-28T02:34:08.150Z,101266.83
2018-09-28T02:36:37.214Z,101268.65
2018-09-28T02:39:06.235Z,101268.95
2018-09-28T02:41:33.840Z,101262.71
2018-09-28T02:44:01.409Z,101264.03
2018-09-28T02:46:29.929Z,101260.15
2018-09-28T02:48:58.529Z,101262.60
2018-09-28T02:51:26.116Z,101259.56
2018-09-28T02:53:53.748Z,101264.37
2018-09-28T02:56:21.282Z,101261.38
2018-09-28T02:58:48.946Z,101260.05
2018-09-28T03:01:16.536Z,101257.39
2018-09-28T03:03:44.188Z,101254.73
2018-09-28T03:06:10.909Z,101251.59
2018-09-28T03:08:37.572Z,101250.77
2018-09-28T03:11:04.200Z,101252.23
2018-09-28T03:13:30.848Z,101255.38
2018-09-28T03:15:58.585Z,101256.56
2018-09-28T03:18:25.227Z,101254.30
2018-09-28T03:20:51.866Z,101259.89
2018-09-28T03:23:18.511Z,101254.19
2018-09-28T03:25:45.159Z,101263.10
2018-09-28T03:28:11.941Z,101260.69
2018-09-28T03:30:38.577Z,101264.66
2018-09-28T03:33:06.694Z,101256.11
2018-09-28T03:35:33.338Z,101260.34
2018-09-28T03:38:00.104Z,101259.75
2018-09-28T03:40:28.252Z,101270.12
2018-09-28T03:42:55.849Z,101263.24
2018-09-28T03:45:23.314Z,101270.36
2018-09-28T03:47:50.950Z,101266.48
2018-09-28T03:50:18.503Z,101259.61
2018-09-28T03:52:45.969Z,101264.31
2018-09-28T03:55:13.872Z,101266.20
2018-09-28T03:57:41.465Z,101258.83
2018-09-28T04:00:10.168Z,101266.97
2018-09-28T04:02:38.293Z,101266.09
2018-09-28T04:05:06.885Z,101264.27
2018-09-28T04:07:35.707Z,101267.08
2018-09-28T04:10:02.444Z,101262.61
2018-09-28T04:12:29.092Z,101263.34
2018-09-28T04:14:55.783Z,101264.27
2018-09-28T04:17:23.418Z,101266.20
2018-09-28T04:19:51.053Z,101272.73
2018-09-28T04:22:18.677Z,101269.48
2018-09-28T04:24:45.325Z,101266.25
2018-09-28T04:27:12.997Z,101268.90
2018-09-28T04:29:40.436Z,101271.06
2018-09-28T04:32:07.905Z,101266.97
2018-09-28T04:34:35.266Z,101270.97
2018-09-28T04:37:01.904Z,101277.70
2018-09-28T04:39:29.509Z,101280.36
2018-09-28T04:41:58.378Z,101277.00
2018-09-28T04:44:26.070Z,101280.98
2018-09-28T04:46:53.661Z,101285.95
2018-09-28T04:49:20.296Z,101290.42
2018-09-28T04:51:46.956Z,101288.60
2018-09-28T04:54:13.594Z,101292.45
2018-09-28T04:56:40.228Z,101294.41
2018-09-28T04:59:06.897Z,101301.28
2018-09-28T05:01:33.590Z,101298.77
2018-09-28T05:04:00.249Z,101304.05
2018-09-28T05:06:26.897Z,101306.20
2018-09-28T05:08:54.449Z,101305.38
2018-09-28T05:11:21.082Z,101316.30
2018-09-28T05:13:47.745Z,101314.77
2018-09-28T05:16:14.389Z,101314.67
2018-09-28T05:18:41.025Z,101315.85
2018-09-28T05:21:07.655Z,101328.05
2018-09-28T05:23:34.309Z,101324.55
2018-09-28T05:26:00.992Z,101326.72
2018-09-28T05:28:28.292Z,101335.91
2018-09-28T05:30:55.015Z,101330.35
2018-09-28T05:33:22.745Z,101336.29
2018-09-28T05:35:50.250Z,101335.00
2018-09-28T05:38:17.712Z,101336.91
2018-09-28T05:40:45.372Z,101338.87
2018-09-28T05:43:12.930Z,101346.20
2018-09-28T05:45:40.557Z,101353.22
2018-09-28T05:48:08.182Z,101353.95
2018-09-28T05:50:37.112Z,101352.63
2018-09-28T05:53:05.713Z,101360.94
2018-09-28T05:55:33.367Z,101366.11
2018-09-28T05:58:06.808Z,101367.17
2018-09-28T06:00:39.221Z,101360.39
2018-09-28T06:03:10.470Z,101367.80
2018-09-28T06:05:41.099Z,101369.72
2018-09-28T06:08:08.809Z,101372.94
2018-09-28T06:10:36.184Z,101381.25
2018-09-28T06:13:03.681Z,101390.06
2018-09-28T06:15:31.355Z,101394.74
2018-09-28T06:17:58.842Z,101400.41
2018-09-28T06:20:26.330Z,101404.04
2018-09-28T06:22:54.081Z,101409.34
2018-09-28T06:25:21.608Z,101418.16
2018-09-28T06:27:49.540Z,101423.25
2018-09-28T06:30:17.144Z,101424.69
2018-09-28T06:32:44.730Z,101432.66
2018-09-28T06:35:12.380Z,101439.75
2018-09-28T06:37:39.040Z,101439.52
2018-09-28T06:40:06.676Z,101444.12
2018-09-28T06:42:33.416Z,101446.77
2018-09-28T06:45:00.077Z,101446.15
2018-09-28T06:47:27.794Z,101455.20
2018-09-28T06:49:54.470Z,101453.91
2018-09-28T06:52:21.146Z,101459.19
2018-09-28T06:54:47.801Z,101454.61
2018-09-28T06:57:14.453Z,101451.46
2018-09-28T06:59:41.109Z,101458.70
2018-09-28T07:02:07.772Z,101459.54
2018-09-28T07:04:35.968Z,101464.60
2018-09-28T07:07:03.644Z,101473.17
2018-09-28T07:09:30.418Z,101479.81
2018-09-28T07:11:57.880Z,101478.27
2018-09-28T07:14:24.508Z,101477.78
2018-09-28T07:16:51.291Z,101477.42
2018-09-28T07:19:17.878Z,101486.72
2018-09-28T07:21:46.132Z,101490.08
2018-09-28T07:24:12.885Z,101489.45
2018-09-28T07:26:39.555Z,101494.77
2018-09-28T07:29:07.898Z,101492.82
2018-09-28T07:31:36.360Z,101507.80
2018-09-28T07:34:03.064Z,101494.64
2018-09-28T07:36:29.861Z,101510.82
2018-09-28T07:38:56.528Z,101511.55
2018-09-28T07:41:23.828Z,101517.11
2018-09-28T07:43:51.397Z,101527.87
2018-09-28T07:46:19.066Z,101532.91
2018-09-28T07:48:46.648Z,101536.91
2018-09-28T07:51:13.341Z,101543.54
2018-09-28T07:53:39.980Z,101545.95
2018-09-28T07:56:07.574Z,101546.55
2018-09-28T07:58:36.562Z,101544.38
2018-09-28T08:01:04.044Z,101543.27
2018-09-28T08:03:31.684Z,101545.22
2018-09-28T08:06:00.091Z,101556.71
2018-09-28T08:08:28.361Z,101556.85
2018-09-28T08:10:55.988Z,101563.82
2018-09-28T08:13:22.684Z,101561.06
2018-09-28T08:15:50.308Z,101561.16
2018-09-28T08:18:18.253Z,101567.91
2018-09-28T08:20:45.832Z,101570.94
2018-09-28T08:23:13.499Z,101581.90
2018-09-28T08:25:41.006Z,101574.88
2018-09-28T08:28:07.746Z,101585.53
2018-09-28T08:30:35.767Z,101592.42
2018-09-28T08:33:02.416Z,101587.92
2018-09-28T08:35:30.220Z,101587.56
2018-09-28T08:37:58.429Z,101594.61
2018-09-28T08:40:25.892Z,101609.91
2018-09-28T08:42:53.572Z,101609.47
2018-09-28T08:45:21.243Z,101602.09
2018-09-28T08:47:48.906Z,101603.66
2018-09-28T08:50:16.557Z,101610.08
2018-09-28T08:52:44.004Z,101611.98
2018-09-28T08:55:11.677Z,101617.69
2018-09-28T08:57:39.236Z,101615.52
2018-09-28T09:00:06.757Z,101622.26
2018-09-28T09:02:34.469Z,101617.20
2018-09-28T09:05:02.201Z,101610.92
2018-09-28T09:07:29.693Z,101608.75
2018-09-28T09:09:58.204Z,101620.34
2018-09-28T09:12:25.214Z,101616.47
2018-09-28T09:14:52.677Z,101620.92
2018-09-28T09:17:20.225Z,101626.98
2018-09-28T09:19:47.793Z,101624.81
2018-09-28T09:22:15.446Z,101623.36
2018-09-28T09:24:42.902Z,101620.21
2018-09-28T09:27:10.563Z,101625.41
2018-09-28T09:29:38.280Z,101621.80
2018-09-28T09:32:07.213Z,101626.16
2018-09-28T09:34:35.893Z,101644.27
2018-09-28T09:37:03.502Z,101639.53
2018-09-28T09:39:31.158Z,101640.77
2018-09-28T09:41:58.591Z,101640.02
2018-09-28T09:44:26.142Z,101644.13
2018-09-28T09:46:53.803Z,101640.77
2018-09-28T09:49:21.500Z,101644.49
2018-09-28T09:51:49.245Z,101646.42
2018-09-28T09:54:16.861Z,101647.64
2018-09-28T09:56:44.485Z,101653.32
2018-09-28T09:59:12.113Z,101655.12
2018-09-28T10:01:45.399Z,101665.84
2018-09-28T10:04:12.471Z,101667.78
2018-09-28T10:06:40.118Z,101661.03
2018-09-28T10:09:08.073Z,101656.09
2018-09-28T10:11:36.804Z,101657.41
2018-09-28T10:14:05.485Z,101661.39
2018-09-28T10:16:33.113Z,101662.37
2018-09-28T10:19:00.684Z,101658.38
2018-09-28T10:21:29.808Z,101656.56
2018-09-28T10:23:58.692Z,101661.02
2018-09-28T10:26:26.622Z,101671.55
2018-09-28T10:28:54.933Z,101674.33
2018-09-28T10:31:22.548Z,101672.64
2018-09-28T10:33:49.197Z,101672.50
2018-09-28T10:36:16.747Z,101668.63
2018-09-28T10:38:43.392Z,101673.11
2018-09-28T10:41:10.097Z,101665.25
2018-09-28T10:43:36.837Z,101664.64
2018-09-28T10:46:06.612Z,101667.30
2018-09-28T10:48:34.172Z,101672.99
2018-09-28T10:51:02.190Z,101672.64
2018-09-28T10:53:28.856Z,101666.23
2018-09-28T10:55:56.518Z,101671.05
2018-09-28T10:58:24.126Z,101670.71
2018-09-28T11:00:51.528Z,101667.91
2018-09-28T11:03:19.349Z,101666.44
2018-09-28T11:05:46.857Z,101669.01
2018-09-28T11:08:13.548Z,101668.89
2018-09-28T11:10:41.177Z,101673.57
2018-09-28T11:13:08.712Z,101675.30
2018-09-28T11:15:37.866Z,101676.61
2018-09-28T11:23:32.529Z,101674.80
2018-09-28T11:26:00.183Z,101685.68
2018-09-28T11:28:27.880Z,101693.62
2018-09-28T11:30:55.338Z,101689.75
2018-09-28T11:33:23.052Z,101679.27
2018-09-28T11:35:49.789Z,101688.20
2018-09-28T11:38:16.436Z,101682.52
2018-09-28T11:40:43.131Z,101685.04
2018-09-28T11:43:09.849Z,101685.55
2018-09-28T11:45:36.502Z,101685.55
2018-09-28T11:48:03.156Z,101677.94
2018-09-28T11:50:29.801Z,101681.07
2018-09-28T11:52:56.498Z,101677.45
2018-09-28T11:55:23.139Z,101675.19
2018-09-28T11:57:49.913Z,101678.80
2018-09-28T12:00:17.626Z,101675.52
2018-09-28T12:02:45.061Z,101684.33
2018-09-28T12:05:12.025Z,101686.52
2018-09-28T12:07:39.505Z,101678.39
2018-09-28T12:10:07.890Z,101673.11
2018-09-28T12:12:36.236Z,101679.51
2018-09-28T12:15:03.673Z,101691.11
2018-09-28T12:17:31.124Z,101692.44
2018-09-28T12:19:58.752Z,101692.89
2018-09-28T12:22:26.441Z,101688.54
2018-09-28T12:24:53.920Z,101681.05
2018-09-28T12:27:21.691Z,101684.84
2018-09-28T12:29:49.190Z,101690.39
2018-09-28T12:32:16.806Z,101688.34
2018-09-28T12:34:44.366Z,101694.97
2018-09-28T12:37:11.908Z,101683.28
2018-09-28T12:39:39.627Z,101683.70
2018-09-28T12:42:08.079Z,101679.73
2018-09-28T12:44:36.844Z,101682.18
2018-09-28T12:47:04.397Z,101675.41
2018-09-28T12:49:31.047Z,101674.33
2018-09-28T12:51:58.637Z,101683.85
2018-09-28T12:54:25.422Z,101684.56
2018-09-28T12:56:53.060Z,101682.03
2018-09-28T12:59:20.641Z,101670.34
2018-09-28T13:01:48.190Z,101671.42
2018-09-28T13:04:17.102Z,101677.07
2018-09-28T13:06:44.033Z,101675.40
2018-09-28T13:09:11.709Z,101675.16
2018-09-28T13:11:38.852Z,101672.73
2018-09-28T13:14:06.463Z,101667.91
2018-09-28T13:16:34.069Z,101679.38
2018-09-28T13:19:01.644Z,101678.77
2018-09-28T13:21:29.296Z,101684.44
2018-09-28T13:23:57.962Z,101686.36
2018-09-28T13:26:24.710Z,101680.23
2018-09-28T13:28:52.336Z,101680.09
2018-09-28T13:31:19.891Z,101687.63
2018-09-28T13:33:47.581Z,101695.93
2018-09-28T13:36:14.265Z,101695.45
2018-09-28T13:38:41.104Z,101691.34
2018-09-28T13:41:07.665Z,101694.47
2018-09-28T13:43:34.301Z,101691.11
2018-09-28T13:46:01.011Z,101693.30
2018-09-28T13:48:29.009Z,101693.01
2018-09-28T13:50:55.847Z,101693.91
2018-09-28T13:53:23.365Z,101696.91
2018-09-28T13:55:50.892Z,101701.52
2018-09-28T13:58:17.673Z,101700.89
2018-09-28T14:00:45.320Z,101700.15
2018-09-28T14:03:13.025Z,101705.94
2018-09-28T14:05:40.570Z,101698.25
2018-09-28T14:08:08.166Z,101704.05
2018-09-28T14:10:36.491Z,101699.92
2018-09-28T14:13:04.277Z,101706.09
2018-09-28T14:15:30.913Z,101711.88
2018-09-28T14:18:00.017Z,101718.80
2018-09-28T14:20:28.778Z,101717.06
2018-09-28T14:22:56.417Z,101727.35
2018-09-28T14:25:24.200Z,101726.77
2018-09-28T14:27:50.861Z,101724.19
2018-09-28T14:30:18.477Z,101734.61
2018-09-28T14:32:46.208Z,101734.84
2018-09-28T14:35:12.897Z,101745.71
2018-09-28T14:37:40.368Z,101744.74
2018-09-28T14:40:08.052Z,101758.04
2018-09-28T14:42:36.692Z,101760.55
2018-09-28T14:45:04.281Z,101753.56
2018-09-28T14:47:30.932Z,101763.22
2018-09-28T14:49:58.744Z,101763.78
2018-09-28T14:52:26.473Z,101753.70
2018-09-28T14:54:54.044Z,101762.84
2018-09-28T14:57:21.569Z,101766.83
2018-09-28T14:59:49.116Z,101771.53
2018-09-28T15:02:15.830Z,101776.71
2018-09-28T15:04:43.522Z,101771.53
2018-09-28T15:07:10.145Z,101774.31
2018-09-28T15:09:37.729Z,101774.41
2018-09-28T15:12:04.397Z,101772.50
2018-09-28T15:14:32.084Z,101780.57
2018-09-28T15:16:58.744Z,101784.33
2018-09-28T15:19:25.408Z,101781.41
2018-09-28T15:21:52.049Z,101778.66
2018-09-28T15:24:19.537Z,101785.17
2018-09-28T15:26:47.284Z,101784.33
2018-09-28T15:29:14.784Z,101797.70
2018-09-28T15:31:42.325Z,101798.45
2018-09-28T15:34:09.921Z,101794.34
2018-09-28T15:36:36.569Z,101794.23
2018-09-28T15:39:04.329Z,101796.20
2018-09-28T15:41:31.876Z,101794.88
2018-09-28T15:44:00.796Z,101795.84
2018-09-28T15:46:29.807Z,101797.64
2018-09-28T15:48:57.369Z,101790.53
2018-09-28T15:51:24.917Z,101792.34
2018-09-28T15:53:51.617Z,101791.94
2018-09-28T15:56:19.100Z,101796.08
2018-09-28T15:58:46.784Z,101803.44
2018-09-28T16:01:14.321Z,101806.20
2018-09-28T16:03:41.844Z,101808.04
2018-09-28T16:06:09.485Z,101798.70
2018-09-28T16:08:38.068Z,101812.84
2018-09-28T16:11:05.918Z,101809.34
2018-09-28T16:13:32.588Z,101811.67
2018-09-28T16:16:00.090Z,101813.81
2018-09-28T16:18:28.691Z,101818.25
2018-09-28T16:20:56.340Z,101808.59
2018-09-28T16:23:23.929Z,101816.66
2018-09-28T16:25:51.631Z,101825.86
2018-09-28T16:28:19.201Z,101829.94
2018-09-28T16:30:46.786Z,101830.42
2018-09-28T16:33:13.420Z,101839.76
2018-09-28T16:35:40.988Z,101841.70
2018-09-28T16:38:08.397Z,101852.20
2018-09-28T16:40:36.912Z,101848.80
2018-09-28T16:43:05.508Z,101858.32
2018-09-28T16:45:33.242Z,101856.41
2018-09-28T16:48:00.804Z,101859.55
2018-09-28T16:50:28.700Z,101864.37
2018-09-28T16:52:56.221Z,101874.88
2018-09-28T16:55:23.993Z,101882.01
2018-09-28T16:57:51.536Z,101886.61
2018-09-28T17:00:19.004Z,101890.59
2018-09-28T17:02:45.659Z,101900.12
2018-09-28T17:05:13.320Z,101898.30
2018-09-28T17:07:40.012Z,101902.81
2018-09-28T17:10:07.553Z,101903.66
2018-09-28T17:12:34.252Z,101910.04
2018-09-28T17:15:01.729Z,101912.56
2018-09-28T17:17:28.400Z,101919.34
2018-09-28T17:19:55.079Z,101922.95
2018-09-28T17:22:21.844Z,101922.08
2018-09-28T17:24:48.485Z,101929.95
2018-09-28T17:27:15.300Z,101935.28
2018-09-28T17:29:41.937Z,101935.41
2018-09-28T17:32:09.441Z,101948.78
2018-09-28T17:34:37.118Z,101950.23
2018-09-28T17:37:05.810Z,101960.60
2018-09-28T17:39:32.469Z,101966.40
2018-09-28T17:42:00.025Z,101961.56
2018-09-28T17:44:26.660Z,101966.88
2018-09-28T17:46:53.310Z,101964.48
2018-09-28T17:49:19.956Z,101970.49
2018-09-28T17:51:46.591Z,101969.04
2018-09-28T17:54:13.291Z,101968.46
2018-09-28T17:56:39.944Z,101967.22
2018-09-28T17:59:07.388Z,101974.84
2018-09-28T18:01:34.037Z,101978.70
2018-09-28T18:04:00.744Z,101978.70
2018-09-28T18:06:28.300Z,101977.49
2018-09-28T18:08:54.937Z,101986.66
2018-09-28T18:11:21.689Z,101979.16
2018-09-28T18:13:48.333Z,101988.12
2018-09-28T18:16:14.984Z,101993.16
2018-09-28T18:18:41.674Z,101986.07
2018-09-28T18:21:09.289Z,101989.16
2018-09-28T18:23:37.052Z,101990.27
2018-09-28T18:26:05.261Z,101992.30
2018-09-28T18:28:31.920Z,101999.78
2018-09-28T18:30:59.404Z,101996.06
2018-09-28T18:33:26.773Z,102001.38
2018-09-28T18:35:53.412Z,102005.59
2018-09-28T18:38:20.071Z,101996.69
2018-09-28T18:40:46.770Z,101998.58
2018-09-28T18:43:14.293Z,102006.27
2018-09-28T18:45:41.856Z,102012.70
2018-09-28T18:48:08.498Z,102002.34
2018-09-28T18:50:35.859Z,102007.66
2018-09-28T18:53:02.507Z,102008.11
2018-09-28T18:55:29.181Z,102012.36
2018-09-28T18:57:55.976Z,102015.72
2018-09-28T19:00:22.770Z,102019.22
2018-09-28T19:02:50.432Z,102022.02
2018-09-28T19:05:17.284Z,102020.33
2018-09-28T19:07:43.988Z,102018.73
2018-09-28T19:10:10.678Z,102022.33
2018-09-28T19:12:37.400Z,102025.26
2018-09-28T19:15:04.369Z,102028.91
2018-09-28T19:17:31.021Z,102035.55
2018-09-28T19:19:58.522Z,102040.11
2018-09-28T19:22:25.164Z,102043.58
2018-09-28T19:24:51.846Z,102038.45
2018-09-28T19:27:18.515Z,102053.18
2018-09-28T19:29:45.188Z,102046.21
2018-09-28T19:32:11.838Z,102051.03
2018-09-28T19:34:39.410Z,102054.27
2018-09-28T19:37:07.007Z,102052.22
2018-09-28T19:39:35.596Z,102056.56
2018-09-28T19:42:03.180Z,102056.56
2018-09-28T19:44:29.824Z,102055.02
2018-09-28T19:46:56.482Z,102060.48
2018-09-28T19:49:23.188Z,102065.44
2018-09-28T19:51:49.920Z,102063.23
2018-09-28T19:54:16.559Z,102064.98
2018-09-28T19:56:43.208Z,102070.35
2018-09-28T19:59:10.669Z,102069.63
2018-09-28T20:01:37.550Z,102080.70
2018-09-28T20:04:04.241Z,102084.20
2018-09-28T20:06:31.901Z,102083.81
2018-09-28T20:08:59.260Z,102082.96
2018-09-28T20:11:26.843Z,102081.15
2018-09-28T20:13:53.537Z,102085.38
2018-09-28T20:16:20.220Z,102092.86
2018-09-28T20:18:47.126Z,102086.22
2018-09-28T20:21:13.837Z,102092.02
2018-09-28T20:23:40.512Z,102094.67
2018-09-28T20:26:07.250Z,102090.92
2018-09-28T20:28:33.993Z,102092.73
2018-09-28T20:31:00.680Z,102099.29
2018-09-28T20:33:28.612Z,102098.20
2018-09-28T20:35:55.332Z,102099.29
2018-09-28T20:38:23.037Z,102098.02
2018-09-28T20:40:49.740Z,102097.17
2018-09-28T20:43:16.414Z,102100.19
2018-09-28T20:45:43.112Z,102101.03
2018-09-28T20:48:09.794Z,102115.16
2018-09-28T20:50:36.466Z,102111.08
2018-09-28T20:53:04.032Z,102105.17
2018-09-28T20:55:31.699Z,102115.79
2018-09-28T20:57:59.227Z,102121.70
2018-09-28T21:00:26.750Z,102122.19
2018-09-28T21:02:54.361Z,102129.88
2018-09-28T21:05:21.837Z,102135.34
2018-09-28T21:07:49.493Z,102131.69
2018-09-28T21:10:16.274Z,102133.41
2018-09-28T21:12:43.035Z,102142.67
2018-09-28T21:15:09.742Z,102146.97
2018-09-28T21:17:37.244Z,102151.55
2018-09-28T21:20:06.241Z,102143.27
2018-09-28T21:22:33.881Z,102148.14
2018-09-28T21:25:00.799Z,102145.00
2018-09-28T21:27:29.000Z,102155.06
2018-09-28T21:29:56.801Z,102161.45
2018-09-28T21:32:23.479Z,102163.06
2018-09-28T21:34:51.104Z,102166.89
2018-09-28T21:37:18.707Z,102174.12
2018-09-28T21:39:46.344Z,102167.94
2018-09-28T21:42:13.946Z,102172.52
2018-09-28T21:44:40.609Z,102171.55
2018-09-28T21:47:08.260Z,102172.52
2018-09-28T21:49:36.996Z,102179.36
2018-09-28T21:52:03.664Z,102175.48
2018-09-28T21:54:31.181Z,102179.47
2018-09-28T21:56:59.293Z,102174.12
2018-09-28T21:59:26.761Z,102177.09
2018-09-28T22:06:47.718Z,102181.16
2018-09-28T22:09:14.449Z,102178.51
2018-09-28T22:11:41.996Z,102178.95
2018-09-28T22:14:08.807Z,102178.34
2018-09-28T22:16:37.801Z,102180.44
2018-09-28T22:19:04.485Z,102175.38
2018-09-28T22:21:31.158Z,102178.51
2018-09-28T22:23:58.675Z,102177.30
2018-09-28T22:26:26.176Z,102178.14
2018-09-28T22:28:53.790Z,102170.78
2018-09-28T22:31:21.453Z,102177.55
2018-09-28T22:33:49.004Z,102179.47
2018-09-28T22:36:15.858Z,102180.59
2018-09-28T22:38:42.569Z,102187.44
2018-09-28T22:41:09.781Z,102191.09
2018-09-28T22:43:37.312Z,102185.94
2018-09-28T22:46:04.121Z,102190.41
2018-09-28T22:48:30.790Z,102179.06
2018-09-28T22:50:57.562Z,102181.80
2018-09-28T22:53:24.225Z,102187.39
2018-09-28T22:55:50.870Z,102188.44
2018-09-28T22:58:18.881Z,102187.95
2018-09-28T23:00:45.594Z,102193.91
2018-09-28T23:03:12.347Z,102190.41
2018-09-28T23:05:39.054Z,102197.05
2018-09-28T23:08:07.972Z,102195.28
2018-09-28T23:10:36.030Z,102196.08
2018-09-28T23:13:02.724Z,102195.55
2018-09-28T23:15:29.378Z,102193.66
2018-09-28T23:17:56.089Z,102198.56
2018-09-28T23:20:22.864Z,102198.20
2018-09-28T23:22:49.657Z,102200.91
2018-09-28T23:25:16.337Z,102194.11
2018-09-28T23:27:43.001Z,102187.39
2018-09-28T23:30:09.666Z,102192.41
2018-09-28T23:32:37.400Z,102189.03
2018-09-28T23:35:04.073Z,102200.38
2018-09-28T23:37:30.768Z,102206.05
2018-09-28T23:39:58.609Z,102206.05
2018-09-28T23:42:25.329Z,102206.77
2018-09-28T23:44:52.091Z,102199.33
2018-09-28T23:47:19.784Z,102197.08
2018-09-28T23:49:47.373Z,102199.05
2018-09-28T23:52:14.401Z,102203.15
2018-09-28T23:54:42.078Z,102204.64
2018-09-28T23:57:09.677Z,102211.27
2018-09-28T23:59:37.367Z,102211.67
